createdAt,value
2017-12-04T00:00:44.460Z,93.78
2017-12-04T00:03:12.041Z,93.78
2017-12-04T00:05:39.687Z,93.69
2017-12-04T00:08:07.276Z,93.61
2017-12-04T00:10:34.856Z,93.67
2017-12-04T00:13:02.468Z,93.76
2017-12-04T00:15:30.048Z,93.62
2017-12-04T00:17:57.675Z,93.98
2017-12-04T00:20:25.264Z,94.06
2017-12-04T00:22:52.860Z,94.05
2017-12-04T00:25:20.468Z,93.90
2017-12-04T00:27:48.055Z,94.18
2017-12-04T00:30:15.719Z,94.22
2017-12-04T00:32:43.315Z,94.21
2017-12-04T00:35:11.322Z,94.19
2017-12-04T00:37:38.930Z,94.04
2017-12-04T00:40:06.856Z,94.09
2017-12-04T00:42:34.496Z,93.92
2017-12-04T00:45:02.189Z,93.90
2017-12-04T00:47:29.765Z,93.95
2017-12-04T00:49:57.376Z,93.90
2017-12-04T00:52:24.956Z,93.83
2017-12-04T00:54:52.583Z,93.70
2017-12-04T00:57:20.160Z,93.71
2017-12-04T00:59:47.757Z,93.62
2017-12-04T01:02:15.384Z,93.53
2017-12-04T01:04:42.979Z,93.56
2017-12-04T01:07:10.947Z,93.56
2017-12-04T01:09:38.553Z,93.67
2017-12-04T01:12:06.148Z,93.53
2017-12-04T01:14:33.775Z,93.48
2017-12-04T01:17:01.394Z,93.39
2017-12-04T01:19:29.360Z,93.37
2017-12-04T01:21:56.932Z,93.32
2017-12-04T01:24:24.515Z,93.26
2017-12-04T01:26:52.149Z,92.99
2017-12-04T01:29:20.015Z,93.08
2017-12-04T01:31:47.980Z,93.02
2017-12-04T01:34:15.561Z,92.95
2017-12-04T01:36:43.130Z,93.37
2017-12-04T01:39:11.073Z,93.39
2017-12-04T01:41:38.644Z,93.42
2017-12-04T01:44:06.252Z,93.22
2017-12-04T01:46:33.832Z,93.17
2017-12-04T01:49:01.421Z,93.15
2017-12-04T01:51:29.036Z,93.08
2017-12-04T01:53:56.647Z,92.84
2017-12-04T01:56:24.267Z,92.70
2017-12-04T01:58:51.859Z,92.91
2017-12-04T02:01:19.738Z,92.72
2017-12-04T02:03:47.347Z,92.59
2017-12-04T02:06:14.935Z,92.47
2017-12-04T02:08:42.551Z,92.43
2017-12-04T02:11:10.124Z,92.43
2017-12-04T02:13:37.747Z,92.28
2017-12-04T02:16:05.354Z,92.31
2017-12-04T02:18:33.277Z,92.32
2017-12-04T02:21:00.900Z,92.19
2017-12-04T02:23:28.492Z,92.42
2017-12-04T02:25:56.067Z,92.46
2017-12-04T02:28:23.679Z,92.78
2017-12-04T02:30:51.272Z,92.86
2017-12-04T02:33:18.911Z,92.75
2017-12-04T02:35:46.492Z,92.82
2017-12-04T02:38:14.072Z,92.80
2017-12-04T02:40:41.701Z,92.98
2017-12-04T02:43:09.304Z,93.13
2017-12-04T02:45:36.921Z,93.34
2017-12-04T02:48:04.493Z,93.25
2017-12-04T02:50:32.086Z,93.21
2017-12-04T02:52:59.703Z,93.64
2017-12-04T02:55:27.293Z,93.59
2017-12-04T02:57:54.933Z,93.43
2017-12-04T03:00:22.527Z,93.26
2017-12-04T03:02:50.106Z,93.33
2017-12-04T03:05:18.057Z,93.41
2017-12-04T03:07:45.640Z,93.08
2017-12-04T03:10:13.277Z,93.09
2017-12-04T03:12:40.861Z,92.98
2017-12-04T03:15:08.820Z,92.77
2017-12-04T03:17:36.448Z,92.94
2017-12-04T03:20:04.341Z,92.79
2017-12-04T03:22:31.938Z,92.75
2017-12-04T03:24:59.568Z,92.58
2017-12-04T03:27:27.175Z,92.57
2017-12-04T03:29:54.797Z,92.39
2017-12-04T03:32:22.454Z,92.30
2017-12-04T03:34:50.038Z,92.57
2017-12-04T03:37:17.625Z,92.60
2017-12-04T03:39:45.541Z,92.67
2017-12-04T03:42:13.131Z,92.59
2017-12-04T03:44:40.746Z,92.43
2017-12-04T03:47:08.347Z,92.51
2017-12-04T03:49:35.974Z,92.67
2017-12-04T03:52:03.858Z,92.61
2017-12-04T03:54:31.731Z,92.28
2017-12-04T03:56:59.369Z,92.12
2017-12-04T03:59:27.258Z,92.20
2017-12-04T04:01:54.852Z,92.02
2017-12-04T04:04:22.795Z,91.78
2017-12-04T04:06:50.395Z,91.62
2017-12-04T04:09:18.014Z,91.50
2017-12-04T04:11:45.609Z,91.61
2017-12-04T04:14:13.180Z,91.52
2017-12-04T04:16:41.118Z,91.31
2017-12-04T04:19:08.704Z,91.27
2017-12-04T04:21:36.331Z,91.29
2017-12-04T04:24:04.200Z,91.15
2017-12-04T04:26:31.792Z,91.02
2017-12-04T04:28:59.732Z,91.04
2017-12-04T04:31:27.319Z,90.80
2017-12-04T04:33:55.264Z,91.00
2017-12-04T04:36:22.860Z,90.72
2017-12-04T04:38:50.446Z,90.65
2017-12-04T04:41:18.158Z,90.44
2017-12-04T04:43:45.740Z,90.25
2017-12-04T04:46:13.371Z,90.28
2017-12-04T04:48:41.236Z,90.15
2017-12-04T04:51:08.856Z,89.86
2017-12-04T04:53:36.490Z,89.82
2017-12-04T04:56:04.083Z,89.73
2017-12-04T04:58:31.697Z,89.73
2017-12-04T05:00:59.303Z,89.66
2017-12-04T05:03:26.900Z,89.79
2017-12-04T05:05:54.510Z,89.78
2017-12-04T05:08:22.144Z,89.69
2017-12-04T05:10:49.807Z,89.21
2017-12-04T05:13:17.391Z,89.34
2017-12-04T05:15:45.004Z,89.26
2017-12-04T05:18:12.614Z,89.18
2017-12-04T05:20:40.227Z,89.26
2017-12-04T05:23:07.880Z,89.17
2017-12-04T05:25:35.449Z,89.07
2017-12-04T05:28:03.030Z,88.55
2017-12-04T05:30:30.718Z,88.36
2017-12-04T05:32:58.311Z,88.48
2017-12-04T05:35:25.959Z,88.40
2017-12-04T05:37:53.540Z,88.13
2017-12-04T05:40:21.142Z,88.21
2017-12-04T05:42:49.109Z,88.02
2017-12-04T05:45:16.981Z,87.88
2017-12-04T05:47:44.615Z,87.50
2017-12-04T05:50:12.240Z,87.38
2017-12-04T05:52:40.179Z,87.23
2017-12-04T05:55:08.152Z,87.10
2017-12-04T05:57:35.737Z,87.21
2017-12-04T06:00:03.376Z,87.11
2017-12-04T06:02:30.957Z,87.11
2017-12-04T06:04:58.600Z,87.18
2017-12-04T06:07:26.200Z,87.17
2017-12-04T06:09:53.797Z,87.31
2017-12-04T06:12:21.787Z,87.19
2017-12-04T06:14:49.377Z,87.07
2017-12-04T06:17:16.952Z,87.14
2017-12-04T06:19:44.592Z,87.22
2017-12-04T06:22:12.177Z,87.05
2017-12-04T06:24:39.852Z,87.18
2017-12-04T06:27:07.760Z,87.25
2017-12-04T06:29:35.383Z,87.36
2017-12-04T06:32:03.000Z,87.46
2017-12-04T06:34:30.599Z,87.66
2017-12-04T06:36:58.232Z,87.35
2017-12-04T06:39:25.860Z,87.04
2017-12-04T06:41:53.844Z,86.76
2017-12-04T06:44:21.711Z,86.68
2017-12-04T06:46:49.293Z,86.76
2017-12-04T06:49:16.915Z,86.71
2017-12-04T06:51:44.501Z,86.62
2017-12-04T06:54:12.105Z,86.70
2017-12-04T06:56:39.725Z,86.67
2017-12-04T06:59:07.324Z,86.81
2017-12-04T07:01:34.947Z,86.88
2017-12-04T07:04:02.564Z,86.46
2017-12-04T07:06:30.149Z,86.30
2017-12-04T07:08:57.775Z,86.30
2017-12-04T07:11:25.365Z,86.40
2017-12-04T07:13:53.267Z,86.47
2017-12-04T07:16:20.888Z,86.14
2017-12-04T07:18:48.630Z,86.39
2017-12-04T07:21:16.249Z,86.08
2017-12-04T07:23:43.875Z,86.17
2017-12-04T07:26:11.512Z,86.28
2017-12-04T07:28:39.094Z,85.91
2017-12-04T07:31:06.663Z,86.02
2017-12-04T07:33:34.293Z,86.01
2017-12-04T07:36:01.875Z,85.41
2017-12-04T07:38:29.496Z,85.27
2017-12-04T07:40:57.349Z,85.26
2017-12-04T07:43:24.966Z,84.82
2017-12-04T07:45:52.573Z,85.29
2017-12-04T07:48:20.188Z,85.15
2017-12-04T07:50:47.826Z,85.04
2017-12-04T07:53:15.674Z,84.90
2017-12-04T07:55:43.272Z,85.00
2017-12-04T07:58:10.892Z,84.99
2017-12-04T08:00:38.492Z,84.85
2017-12-04T08:03:06.140Z,84.91
2017-12-04T08:05:33.757Z,84.31
2017-12-04T08:08:01.360Z,83.89
2017-12-04T08:10:28.975Z,83.73
2017-12-04T08:12:56.565Z,83.56
2017-12-04T08:15:26.145Z,83.34
2017-12-04T08:17:53.747Z,83.30
2017-12-04T08:20:21.390Z,82.78
2017-12-04T08:22:49.018Z,83.11
2017-12-04T08:25:16.645Z,82.78
2017-12-04T08:27:44.289Z,82.74
2017-12-04T08:30:11.893Z,82.46
2017-12-04T08:32:39.493Z,82.43
2017-12-04T08:35:07.115Z,82.38
2017-12-04T08:37:34.772Z,82.67
2017-12-04T08:40:03.272Z,82.54
2017-12-04T08:42:30.896Z,82.66
2017-12-04T08:44:58.476Z,82.36
2017-12-04T08:47:26.114Z,81.92
2017-12-04T08:49:54.068Z,82.00
2017-12-04T08:52:21.752Z,81.95
2017-12-04T08:54:49.385Z,81.31
2017-12-04T08:57:17.006Z,80.81
2017-12-04T08:59:44.631Z,80.35
2017-12-04T09:02:12.524Z,79.64
2017-12-04T09:04:40.791Z,79.79
2017-12-04T09:07:08.368Z,79.79
2017-12-04T09:09:36.116Z,79.46
2017-12-04T09:12:03.723Z,79.34
2017-12-04T09:14:31.304Z,79.66
2017-12-04T09:16:58.983Z,79.26
2017-12-04T09:19:26.564Z,79.13
2017-12-04T09:21:54.147Z,78.65
2017-12-04T09:24:21.766Z,78.09
2017-12-04T09:26:49.349Z,78.37
2017-12-04T09:29:16.992Z,79.00
2017-12-04T09:31:45.476Z,78.98
2017-12-04T09:34:13.066Z,78.34
2017-12-04T09:36:40.699Z,77.95
2017-12-04T09:39:08.287Z,78.16
2017-12-04T09:41:35.940Z,77.76
2017-12-04T09:44:03.579Z,77.51
2017-12-04T09:46:31.156Z,78.02
2017-12-04T09:48:58.794Z,77.66
2017-12-04T09:51:26.464Z,77.36
2017-12-04T09:53:54.118Z,77.31
2017-12-04T09:56:21.688Z,77.01
2017-12-04T09:58:49.340Z,77.93
2017-12-04T10:01:17.010Z,78.37
2017-12-04T10:03:44.595Z,79.29
2017-12-04T10:06:12.227Z,79.40
2017-12-04T10:08:44.502Z,81.13
2017-12-04T10:11:12.078Z,82.64
2017-12-04T10:13:40.027Z,84.27
2017-12-04T10:16:07.668Z,85.09
2017-12-04T10:18:35.268Z,85.48
2017-12-04T10:21:02.849Z,85.83
2017-12-04T10:23:30.476Z,86.25
2017-12-04T10:25:58.049Z,86.30
2017-12-04T10:28:25.683Z,86.41
2017-12-04T10:30:53.298Z,86.08
2017-12-04T10:33:21.140Z,86.37
2017-12-04T10:35:48.775Z,86.98
2017-12-04T10:38:16.594Z,85.96
2017-12-04T10:40:44.190Z,85.82
2017-12-04T10:43:12.407Z,85.75
2017-12-04T10:45:40.024Z,84.89
2017-12-04T10:48:07.689Z,85.57
2017-12-04T10:50:35.451Z,86.29
2017-12-04T10:53:03.069Z,86.63
2017-12-04T10:55:30.726Z,86.08
2017-12-04T10:57:58.316Z,85.33
2017-12-04T11:00:30.146Z,85.33
2017-12-04T11:02:57.731Z,86.00
2017-12-04T11:05:25.778Z,86.36
2017-12-04T11:07:53.364Z,86.60
2017-12-04T11:10:20.943Z,86.28
2017-12-04T11:12:48.562Z,86.81
2017-12-04T11:15:16.149Z,86.38
2017-12-04T11:17:43.792Z,87.05
2017-12-04T11:20:11.653Z,87.10
2017-12-04T11:22:39.231Z,87.29
2017-12-04T11:25:06.855Z,87.13
2017-12-04T11:27:34.745Z,86.75
2017-12-04T11:30:02.361Z,86.63
2017-12-04T11:32:30.523Z,86.35
2017-12-04T11:34:58.117Z,86.22
2017-12-04T11:37:25.723Z,85.88
2017-12-04T11:39:53.296Z,84.45
2017-12-04T11:42:20.915Z,84.37
2017-12-04T11:44:48.847Z,84.37
2017-12-04T11:47:16.429Z,84.42
2017-12-04T11:49:44.054Z,84.04
2017-12-04T11:52:11.999Z,83.58
2017-12-04T11:54:39.763Z,83.73
2017-12-04T11:57:07.349Z,83.39
2017-12-04T11:59:35.206Z,83.67
2017-12-04T12:02:02.831Z,83.41
2017-12-04T12:04:30.713Z,82.37
2017-12-04T12:06:58.585Z,83.07
2017-12-04T12:09:26.448Z,82.92
2017-12-04T12:11:54.449Z,82.80
2017-12-04T12:14:22.147Z,82.63
2017-12-04T12:16:49.752Z,83.28
2017-12-04T12:19:17.372Z,82.35
2017-12-04T12:21:45.286Z,81.89
2017-12-04T12:24:13.256Z,80.84
2017-12-04T12:26:40.871Z,79.21
2017-12-04T12:29:08.525Z,79.22
2017-12-04T12:31:36.167Z,79.20
2017-12-04T12:34:03.752Z,78.90
2017-12-04T12:36:31.368Z,77.40
2017-12-04T12:38:58.992Z,78.01
2017-12-04T12:41:26.597Z,78.47
2017-12-04T12:43:54.227Z,77.07
2017-12-04T12:46:21.812Z,76.31
2017-12-04T12:48:49.400Z,76.44
2017-12-04T12:51:17.023Z,76.01
2017-12-04T12:53:44.900Z,77.33
2017-12-04T12:56:12.537Z,78.31
2017-12-04T12:58:40.124Z,78.60
2017-12-04T13:01:07.743Z,79.16
2017-12-04T13:03:35.353Z,77.95
2017-12-04T13:06:02.948Z,76.62
2017-12-04T13:08:30.573Z,76.89
2017-12-04T13:10:58.192Z,76.50
2017-12-04T13:13:25.789Z,76.40
2017-12-04T13:15:53.393Z,76.72
2017-12-04T13:18:21.010Z,76.42
2017-12-04T13:20:48.658Z,75.01
2017-12-04T13:23:16.320Z,75.61
2017-12-04T13:25:43.896Z,75.43
2017-12-04T13:28:11.747Z,76.33
2017-12-04T13:30:41.287Z,74.93
2017-12-04T13:33:20.687Z,75.48
2017-12-04T13:36:00.204Z,75.00
2017-12-04T13:38:28.135Z,75.31
2017-12-04T13:40:55.720Z,75.39
2017-12-04T13:43:23.296Z,76.36
2017-12-04T13:45:50.937Z,76.58
2017-12-04T13:48:18.517Z,76.67
2017-12-04T13:50:46.156Z,77.40
2017-12-04T13:53:13.745Z,77.09
2017-12-04T13:55:41.336Z,77.99
2017-12-04T13:58:08.956Z,77.74
2017-12-04T14:00:36.628Z,78.27
2017-12-04T14:03:04.298Z,78.81
2017-12-04T14:05:31.888Z,79.01
2017-12-04T14:07:59.469Z,78.79
2017-12-04T14:10:27.093Z,79.36
2017-12-04T14:12:54.669Z,79.25
2017-12-04T14:15:22.288Z,79.05
2017-12-04T14:17:50.229Z,78.89
2017-12-04T14:20:17.816Z,78.25
2017-12-04T14:22:45.441Z,78.08
2017-12-04T14:25:13.019Z,78.05
2017-12-04T14:27:40.695Z,78.08
2017-12-04T14:30:08.321Z,78.19
2017-12-04T14:32:35.915Z,78.98
2017-12-04T14:35:03.561Z,78.87
2017-12-04T14:37:31.425Z,79.41
2017-12-04T14:39:59.092Z,79.31
2017-12-04T14:42:26.690Z,80.47
2017-12-04T14:44:54.301Z,80.59
2017-12-04T14:47:21.931Z,80.19
2017-12-04T14:49:49.549Z,80.06
2017-12-04T14:52:17.235Z,80.03
2017-12-04T14:54:44.843Z,80.23
2017-12-04T14:57:12.785Z,80.38
2017-12-04T14:59:40.816Z,80.68
2017-12-04T15:02:08.446Z,80.91
2017-12-04T15:04:36.122Z,81.50
2017-12-04T15:07:03.711Z,81.30
2017-12-04T15:09:31.563Z,81.52
2017-12-04T15:11:59.171Z,81.09
2017-12-04T15:14:26.773Z,81.03
2017-12-04T15:16:54.424Z,81.15
2017-12-04T15:19:22.024Z,81.21
2017-12-04T15:21:50.179Z,81.09
2017-12-04T15:24:17.810Z,81.09
2017-12-04T15:26:45.414Z,81.15
2017-12-04T15:29:13.051Z,81.20
2017-12-04T15:31:40.641Z,81.23
2017-12-04T15:34:08.302Z,81.85
2017-12-04T15:36:35.973Z,81.56
2017-12-04T15:39:03.701Z,81.81
2017-12-04T15:41:31.351Z,81.33
2017-12-04T15:43:59.027Z,80.70
2017-12-04T15:46:26.669Z,80.60
2017-12-04T15:48:54.331Z,80.25
2017-12-04T15:51:21.937Z,80.44
2017-12-04T15:53:49.557Z,80.39
2017-12-04T15:56:17.155Z,79.78
2017-12-04T15:58:44.822Z,79.56
2017-12-04T16:01:12.437Z,79.64
2017-12-04T16:03:40.353Z,78.38
2017-12-04T16:06:07.965Z,78.55
2017-12-04T16:08:35.577Z,79.04
2017-12-04T16:11:03.442Z,78.66
2017-12-04T16:13:31.056Z,79.02
2017-12-04T16:15:58.771Z,78.80
2017-12-04T16:18:26.398Z,78.85
2017-12-04T16:20:54.053Z,78.90
2017-12-04T16:23:21.961Z,78.07
2017-12-04T16:25:49.570Z,78.95
2017-12-04T16:28:17.143Z,78.71
2017-12-04T16:30:44.727Z,78.49
2017-12-04T16:33:12.351Z,78.32
2017-12-04T16:35:39.934Z,78.20
2017-12-04T16:38:07.787Z,78.71
2017-12-04T16:40:35.421Z,78.89
2017-12-04T16:43:03.064Z,78.94
2017-12-04T16:45:30.677Z,78.94
2017-12-04T16:47:58.339Z,79.19
2017-12-04T16:50:26.364Z,79.05
2017-12-04T16:52:53.968Z,79.55
2017-12-04T16:55:21.569Z,78.99
2017-12-04T16:57:49.309Z,78.66
2017-12-04T17:00:16.904Z,79.00
2017-12-04T17:02:44.786Z,78.52
2017-12-04T17:05:12.388Z,78.40
2017-12-04T17:07:39.990Z,78.46
2017-12-04T17:10:07.605Z,78.75
2017-12-04T17:12:35.228Z,79.30
2017-12-04T17:15:02.856Z,79.29
2017-12-04T17:17:30.866Z,78.78
2017-12-04T17:19:58.441Z,78.92
2017-12-04T17:22:26.388Z,78.82
2017-12-04T17:24:53.975Z,79.09
2017-12-04T17:27:21.551Z,79.60
2017-12-04T17:29:49.164Z,79.58
2017-12-04T17:32:16.748Z,79.60
2017-12-04T17:34:44.374Z,79.68
2017-12-04T17:37:11.992Z,78.83
2017-12-04T17:39:39.582Z,79.16
2017-12-04T17:42:07.199Z,79.00
2017-12-04T17:44:34.786Z,79.30
2017-12-04T17:47:02.421Z,79.59
2017-12-04T17:49:30.007Z,79.50
2017-12-04T17:51:57.585Z,80.04
2017-12-04T17:54:25.201Z,80.10
2017-12-04T17:56:53.079Z,80.31
2017-12-04T17:59:23.237Z,80.37
2017-12-04T18:01:50.929Z,80.37
2017-12-04T18:04:18.517Z,80.37
2017-12-04T18:06:46.185Z,80.66
2017-12-04T18:09:13.780Z,80.54
2017-12-04T18:11:41.396Z,80.90
2017-12-04T18:14:08.980Z,80.64
2017-12-04T18:16:36.552Z,80.81
2017-12-04T18:19:04.188Z,81.03
2017-12-04T18:21:31.776Z,81.01
2017-12-04T18:23:59.407Z,80.46
2017-12-04T18:26:27.273Z,80.74
2017-12-04T18:28:54.935Z,80.32
2017-12-04T18:31:22.549Z,80.16
2017-12-04T18:33:50.148Z,80.13
2017-12-04T18:36:17.813Z,80.50
2017-12-04T18:38:45.401Z,80.56
2017-12-04T18:41:13.003Z,80.67
2017-12-04T18:43:40.618Z,80.43
2017-12-04T18:46:08.224Z,80.66
2017-12-04T18:48:35.837Z,80.65
2017-12-04T18:51:03.408Z,80.79
2017-12-04T18:53:30.997Z,80.59
2017-12-04T18:55:58.924Z,80.59
2017-12-04T18:58:26.509Z,80.53
2017-12-04T19:00:54.145Z,80.83
2017-12-04T19:03:21.810Z,81.09
2017-12-04T19:05:49.381Z,80.97
2017-12-04T19:08:17.008Z,81.08
2017-12-04T19:10:44.606Z,81.35
2017-12-04T19:13:12.233Z,81.12
2017-12-04T19:15:39.828Z,80.75
2017-12-04T19:18:07.435Z,80.55
2017-12-04T19:20:35.065Z,80.70
2017-12-04T19:23:02.655Z,80.56
2017-12-04T19:25:30.285Z,80.55
2017-12-04T19:27:57.874Z,80.54
2017-12-04T19:30:25.459Z,80.72
2017-12-04T19:32:53.136Z,80.56
2017-12-04T19:35:20.729Z,80.38
2017-12-04T19:37:48.786Z,80.50
2017-12-04T19:40:16.429Z,80.70
2017-12-04T19:42:44.032Z,80.62
2017-12-04T19:45:11.637Z,80.57
2017-12-04T19:47:39.533Z,80.92
2017-12-04T19:50:07.276Z,81.12
2017-12-04T19:52:35.000Z,81.17
2017-12-04T19:55:02.714Z,81.30
2017-12-04T19:57:30.472Z,81.20
2017-12-04T19:59:58.085Z,81.45
2017-12-04T20:02:26.258Z,81.77
2017-12-04T20:04:54.064Z,81.78
2017-12-04T20:07:21.650Z,81.89
2017-12-04T20:09:49.286Z,82.12
2017-12-04T20:12:16.864Z,82.01
2017-12-04T20:14:44.507Z,82.02
2017-12-04T20:17:12.196Z,82.20
2017-12-04T20:19:40.194Z,82.44
2017-12-04T20:22:07.823Z,82.53
2017-12-04T20:24:35.416Z,82.52
2017-12-04T20:27:03.046Z,82.60
2017-12-04T20:29:30.660Z,82.81
2017-12-04T20:31:58.271Z,82.74
2017-12-04T20:34:25.915Z,82.96
2017-12-04T20:36:53.508Z,83.16
2017-12-04T20:39:21.140Z,83.21
2017-12-04T20:41:48.737Z,83.13
2017-12-04T20:44:16.355Z,83.39
2017-12-04T20:46:44.022Z,83.43
2017-12-04T20:49:11.693Z,83.43
2017-12-04T20:51:39.394Z,83.46
2017-12-04T20:54:07.017Z,83.77
2017-12-04T20:56:34.852Z,83.57
2017-12-04T20:59:02.460Z,83.56
2017-12-04T21:01:30.083Z,83.50
2017-12-04T21:03:57.731Z,83.32
2017-12-04T21:06:25.324Z,83.56
2017-12-04T21:09:04.856Z,83.54
2017-12-04T21:11:44.182Z,83.63
2017-12-04T21:17:25.900Z,83.95
2017-12-04T21:19:53.539Z,84.30
2017-12-04T21:22:21.139Z,84.50
2017-12-04T21:24:48.820Z,84.58
2017-12-04T21:27:16.445Z,84.28
2017-12-04T21:29:45.100Z,84.53
2017-12-04T21:32:12.728Z,84.41
2017-12-04T21:34:40.364Z,84.61
2017-12-04T21:37:07.953Z,84.68
2017-12-04T21:39:35.645Z,84.74
2017-12-04T21:42:03.467Z,84.90
2017-12-04T21:44:31.384Z,84.94
2017-12-04T21:46:58.964Z,85.01
2017-12-04T21:49:26.545Z,85.01
2017-12-04T21:51:54.169Z,84.91
2017-12-04T21:54:22.050Z,84.81
2017-12-04T21:56:49.680Z,84.78
2017-12-04T21:59:17.256Z,84.73
2017-12-04T22:01:44.847Z,84.73
2017-12-04T22:04:12.456Z,84.77
2017-12-04T22:06:40.229Z,84.92
2017-12-04T22:09:07.852Z,84.81
2017-12-04T22:11:35.484Z,84.71
2017-12-04T22:14:03.213Z,84.80
2017-12-04T22:16:31.427Z,84.97
2017-12-04T22:18:59.029Z,85.02
2017-12-04T22:21:26.676Z,85.09
2017-12-04T22:23:54.283Z,85.18
2017-12-04T22:26:22.320Z,85.19
2017-12-04T22:28:49.916Z,85.50
2017-12-04T22:31:17.520Z,85.56
2017-12-04T22:33:45.135Z,85.49
2017-12-04T22:36:12.827Z,85.36
2017-12-04T22:38:40.438Z,85.67
2017-12-04T22:41:08.063Z,85.91
2017-12-04T22:43:35.913Z,85.76
2017-12-04T22:46:03.596Z,85.95
2017-12-04T22:48:31.176Z,85.91
2017-12-04T22:50:58.802Z,85.93
2017-12-04T22:53:26.392Z,85.82
2017-12-04T22:55:54.389Z,85.98
2017-12-04T22:58:22.009Z,86.00
2017-12-04T23:00:49.589Z,86.23
2017-12-04T23:03:17.214Z,86.44
2017-12-04T23:05:45.197Z,86.47
2017-12-04T23:08:13.063Z,86.48
2017-12-04T23:10:40.647Z,86.52
2017-12-04T23:13:08.282Z,86.76
2017-12-04T23:15:35.912Z,87.02
2017-12-04T23:18:03.778Z,87.06
2017-12-04T23:20:31.376Z,86.92
2017-12-04T23:22:58.963Z,86.98
2017-12-04T23:25:26.605Z,87.00
2017-12-04T23:27:54.205Z,87.16
2017-12-04T23:30:22.925Z,87.19
2017-12-04T23:32:50.503Z,87.36
2017-12-04T23:35:18.109Z,87.42
2017-12-04T23:37:45.728Z,87.66
2017-12-04T23:40:13.335Z,87.57
2017-12-04T23:42:40.988Z,87.38
2017-12-04T23:45:08.574Z,87.70
2017-12-04T23:47:36.170Z,87.58
2017-12-04T23:50:03.797Z,87.44
2017-12-04T23:52:31.408Z,87.42
2017-12-04T23:54:59.051Z,87.49
2017-12-04T23:57:26.936Z,87.64
2017-12-04T23:59:54.524Z,87.67
